Time;durP1;ratioP1;P1;durP2;ratioP2;P2;SDS_P1;SDS_P2;PMS_P1;PMS_P2;Temp;Humidity;BMP_temperature;BMP_pressure;BME280_temperature;BME280_humidity;BME280_pressure;Samples;Min_cycle;Max_cycle;Signal;HPM_P1;HPM_P2
2022/04/17 00:00:01;;;;;;;;;;;;;;;8.47;52.79004;103153.4;;;;-79
2022/04/17 00:05:03;;;;;;;;;;;;;;;8.36;52.88965;103147.4;;;;-80
2022/04/17 00:09:59;;;;;;;;;;;;;;;8.35;52.92188;103155.3;;;;-77
2022/04/17 00:12:43;;;;;;;5;2.6;;;;;;;;;;;;;-81
2022/04/17 00:15:00;;;;;;;;;;;;;;;8.28;52.94727;103153.6;;;;-80
2022/04/17 00:20:00;;;;;;;;;;;;;;;8.23;52.97363;103157.6;;;;-78
2022/04/17 00:25:01;;;;;;;;;;;;;;;8.15;53.04102;103150.7;;;;-80
2022/04/17 00:29:59;;;;;;;;;;;;;;;8.09;53.08887;103142.7;;;;-81
2022/04/17 00:34:59;;;;;;;;;;;;;;;8.01;52.91406;103130.3;;;;-80
2022/04/17 00:39:59;;;;;;;;;;;;;;;8.01;52.98047;103139.8;;;;-81
2022/04/17 00:42:44;;;;;;;4.5;2.5;;;;;;;;;;;;;-81
2022/04/17 00:45:01;;;;;;;;;;;;;;;7.99;52.95508;103133.7;;;;-80
2022/04/17 00:49:59;;;;;;;;;;;;;;;7.93;52.90527;103129.4;;;;-80
2022/04/17 00:55:02;;;;;;;;;;;;;;;7.88;53.04102;103123.3;;;;-79
2022/04/17 01:00:01;;;;;;;;;;;;;;;7.84;52.99219;103111.8;;;;-80
2022/04/17 01:04:59;;;;;;;;;;;;;;;7.81;53.03223;103116.7;;;;-79
2022/04/17 01:10:00;;;;;;;;;;;;;;;7.75;52.96973;103112.1;;;;-79
2022/04/17 01:12:44;;;;;;;5;2.6;;;;;;;;;;;;;-79
2022/04/17 01:14:59;;;;;;;;;;;;;;;7.71;53.02051;103111.2;;;;-80
2022/04/17 01:19:59;;;;;;;;;;;;;;;7.67;52.91602;103103.1;;;;-80
2022/04/17 01:30:00;;;;;;;;;;;;;;;7.53;53.0752;103094.1;;;;-82
2022/04/17 01:34:59;;;;;;;;;;;;;;;7.55;53.10059;103110;;;;-80
2022/04/17 01:42:44;;;;;;;4.6;2.5;;;;;;;;;;;;;-80
2022/04/17 01:45:00;;;;;;;;;;;;;;;7.41;53.22852;103095.5;;;;-79
2022/04/17 01:49:59;;;;;;;;;;;;;;;7.38;53.34473;103101.4;;;;-82
2022/04/17 01:55:02;;;;;;;;;;;;;;;7.32;53.45996;103100.8;;;;-79
2022/04/17 02:00:03;;;;;;;;;;;;;;;7.28;53.69824;103101.1;;;;-80
2022/04/17 02:05:01;;;;;;;;;;;;;;;7.24;53.60547;103097.9;;;;-81
2022/04/17 02:09:59;;;;;;;;;;;;;;;7.16;53.75098;103102.3;;;;-79
2022/04/17 02:12:46;;;;;;;5.6;2.8;;;;;;;;;;;;;-80
2022/04/17 02:14:59;;;;;;;;;;;;;;;7.11;53.91113;103102.8;;;;-80
2022/04/17 02:20:08;;;;;;;;;;;;;;;7.1;53.98535;103096.2;;;;-79
2022/04/17 02:24:59;;;;;;;;;;;;;;;7.05;54.12402;103093.2;;;;-80
2022/04/17 02:29:59;;;;;;;;;;;;;;;6.98;54.2373;103089;;;;-79
2022/04/17 02:34:59;;;;;;;;;;;;;;;6.96;54.17871;103091.7;;;;-79
2022/04/17 02:40:02;;;;;;;;;;;;;;;6.91;54.22754;103096.9;;;;-78
2022/04/17 02:42:47;;;;;;;9.1;3.4;;;;;;;;;;;;;-80
2022/04/17 02:44:59;;;;;;;;;;;;;;;6.88;54.29102;103094.4;;;;-80
2022/04/17 02:49:59;;;;;;;;;;;;;;;6.84;54.35156;103092.9;;;;-80
2022/04/17 02:55:00;;;;;;;;;;;;;;;6.78;54.43164;103091;;;;-78
2022/04/17 02:59:59;;;;;;;;;;;;;;;6.74;54.43945;103085.6;;;;-78
2022/04/17 03:10:02;;;;;;;;;;;;;;;6.67;54.37402;103080.7;;;;-79
2022/04/17 03:12:47;;;;;;;6.5;3.2;;;;;;;;;;;;;-80
2022/04/17 03:15:00;;;;;;;;;;;;;;;6.6;54.25391;103072.2;;;;-80
2022/04/17 03:19:59;;;;;;;;;;;;;;;6.55;54.40332;103068.4;;;;-80
2022/04/17 03:24:59;;;;;;;;;;;;;;;6.53;54.4668;103070.4;;;;-79
2022/04/17 03:30:10;;;;;;;;;;;;;;;6.47;54.40527;103064.6;;;;-79
2022/04/17 03:34:59;;;;;;;;;;;;;;;6.44;54.32422;103061.4;;;;-79
2022/04/17 03:39:59;;;;;;;;;;;;;;;6.37;54.3252;103049.9;;;;-80
2022/04/17 03:42:47;;;;;;;6.9;3.3;;;;;;;;;;;;;-80
2022/04/17 03:44:59;;;;;;;;;;;;;;;6.27;54.57813;103039;;;;-79
2022/04/17 03:49:59;;;;;;;;;;;;;;;6.27;54.5127;103043;;;;-79
2022/04/17 03:54:59;;;;;;;;;;;;;;;6.21;54.69336;103041;;;;-78
2022/04/17 04:00:00;;;;;;;;;;;;;;;6.15;54.9375;103036.5;;;;-80
2022/04/17 04:04:59;;;;;;;;;;;;;;;6.08;54.87402;103024.5;;;;-79
2022/04/17 04:10:05;;;;;;;;;;;;;;;6.09;54.95117;103034;;;;-80
2022/04/17 04:12:49;;;;;;;6.7;3.6;;;;;;;;;;;;;-81
2022/04/17 04:14:59;;;;;;;;;;;;;;;6.06;55.0918;103029.5;;;;-80
2022/04/17 04:19:59;;;;;;;;;;;;;;;6.03;55.26563;103031.8;;;;-80
2022/04/17 04:24:59;;;;;;;;;;;;;;;5.98;55.05859;103021.7;;;;-79
2022/04/17 04:29:59;;;;;;;;;;;;;;;5.96;55.20117;103024;;;;-81
2022/04/17 04:35:00;;;;;;;;;;;;;;;5.89;55.45801;103016.6;;;;-80
2022/04/17 04:39:59;;;;;;;;;;;;;;;5.87;55.37695;103010.8;;;;-78
2022/04/17 04:42:48;;;;;;;8.5;4.1;;;;;;;;;;;;;-80
2022/04/17 04:50:02;;;;;;;;;;;;;;;5.81;55.17969;103004;;;;-79
2022/04/17 04:55:06;;;;;;;;;;;;;;;5.74;55.44727;103003.4;;;;-81
2022/04/17 05:00:00;;;;;;;;;;;;;;;5.76;55.64844;103008.6;;;;-79
2022/04/17 05:05:04;;;;;;;;;;;;;;;5.78;55.56348;103010.9;;;;-80
2022/04/17 05:10:00;;;;;;;;;;;;;;;5.77;55.57324;103010.7;;;;-79
2022/04/17 05:12:51;;;;;;;10.4;4.7;;;;;;;;;;;;;-80
2022/04/17 05:14:59;;;;;;;;;;;;;;;5.73;55.7334;103003.7;;;;-78
2022/04/17 05:19:59;;;;;;;;;;;;;;;5.78;55.78418;103010.5;;;;-79
2022/04/17 05:24:59;;;;;;;;;;;;;;;5.74;55.70117;103006.4;;;;-82
2022/04/17 05:29:59;;;;;;;;;;;;;;;5.78;55.77148;103009.4;;;;-78
2022/04/17 05:34:59;;;;;;;;;;;;;;;5.84;55.86914;103014.5;;;;-79
2022/04/17 05:40:00;;;;;;;;;;;;;;;5.82;55.77734;103006;;;;-80
2022/04/17 05:42:50;;;;;;;9.7;4.9;;;;;;;;;;;;;-80
2022/04/17 05:44:59;;;;;;;;;;;;;;;5.86;55.90527;103013.3;;;;-80
2022/04/17 06:00:12;;;;;;;;;;;;;;;6.95;54.27637;103015.2;;;;-79
2022/04/17 06:05:13;;;;;;;;;;;;;;;7.56;53.05859;103012.3;;;;-80
2022/04/17 06:10:14;;;;;;;;;;;;;;;8.05;52.37598;103005.1;;;;-80
2022/04/17 06:13:00;;;;;;;10;4.7;;;;;;;;;;;;;-77
2022/04/17 06:14:59;;;;;;;;;;;;;;;8.56;51.30371;103006.9;;;;-79
2022/04/17 06:19:59;;;;;;;;;;;;;;;8.97;50.87402;102999.1;;;;-78
2022/04/17 06:25:01;;;;;;;;;;;;;;;9.35;50.25098;103003.3;;;;-80
2022/04/17 06:30:04;;;;;;;;;;;;;;;9.66;49.57324;102999.8;;;;-81
2022/04/17 06:35:02;;;;;;;;;;;;;;;9.96;49.22852;102995.9;;;;-76
2022/04/17 06:40:02;;;;;;;;;;;;;;;10.25;48.69238;103000.5;;;;-74
2022/04/17 06:42:49;;;;;;;9.2;4.8;;;;;;;;;;;;;-74
2022/04/17 06:44:59;;;;;;;;;;;;;;;10.48;48.34961;102989.7;;;;-74
2022/04/17 06:49:59;;;;;;;;;;;;;;;10.79;47.82422;102989.5;;;;-74
2022/04/17 06:54:59;;;;;;;;;;;;;;;11.03;47.45898;102984.9;;;;-75
2022/04/17 07:00:07;;;;;;;;;;;;;;;11.25;47.00195;102980.8;;;;-75
2022/04/17 07:04:59;;;;;;;;;;;;;;;11.45;46.59766;102976.6;;;;-74
2022/04/17 07:09:59;;;;;;;;;;;;;;;11.65;46.09375;102968.1;;;;-74
2022/04/17 07:12:53;;;;;;;8.5;4.9;;;;;;;;;;;;;-76
2022/04/17 07:15:00;;;;;;;;;;;;;;;11.95;45.6543;102966.7;;;;-75
2022/04/17 07:20:00;;;;;;;;;;;;;;;12.18;45.30664;102968.1;;;;-73
2022/04/17 07:25:01;;;;;;;;;;;;;;;12.41;44.92578;102962.2;;;;-75
2022/04/17 07:29:59;;;;;;;;;;;;;;;12.62;44.61133;102955;;;;-73
2022/04/17 07:35:01;;;;;;;;;;;;;;;12.92;44.42871;102956.8;;;;-74
2022/04/17 07:39:59;;;;;;;;;;;;;;;13.22;44.08789;102955.7;;;;-74
2022/04/17 07:42:53;;;;;;;9;4.5;;;;;;;;;;;;;-74
2022/04/17 07:44:59;;;;;;;;;;;;;;;13.53;43.97363;102953.8;;;;-73
2022/04/17 07:50:02;;;;;;;;;;;;;;;13.9;43.52539;102951.2;;;;-76
2022/04/17 07:54:59;;;;;;;;;;;;;;;14.24;43.42383;102947;;;;-77
2022/04/17 08:00:00;;;;;;;;;;;;;;;14.62;42.86328;102946.5;;;;-76
2022/04/17 08:04:59;;;;;;;;;;;;;;;15.01;42.76563;102942.9;;;;-76
2022/04/17 08:09:59;;;;;;;;;;;;;;;15.33;42.47949;102939.2;;;;-74
2022/04/17 08:12:54;;;;;;;8.6;4.3;;;;;;;;;;;;;-74
2022/04/17 08:14:59;;;;;;;;;;;;;;;15.65;41.93262;102937.8;;;;-76
2022/04/17 08:20:03;;;;;;;;;;;;;;;16.06;41.50781;102940.2;;;;-75
2022/04/17 08:25:00;;;;;;;;;;;;;;;16.36;41.19531;102927.1;;;;-76
2022/04/17 08:29:59;;;;;;;;;;;;;;;16.79;40.88281;102937.6;;;;-75
2022/04/17 08:34:59;;;;;;;;;;;;;;;17.14;39.94922;102928.5;;;;-75
2022/04/17 08:39:59;;;;;;;;;;;;;;;17.46;39.52344;102931.9;;;;-76
2022/04/17 08:43:07;;;;;;;9.3;4;;;;;;;;;;;;;-76
2022/04/17 08:50:02;;;;;;;;;;;;;;;18.04;38.50488;102926.4;;;;-75
2022/04/17 08:54:59;;;;;;;;;;;;;;;18.33;38.34668;102921;;;;-76
2022/04/17 08:59:59;;;;;;;;;;;;;;;18.7;38.07129;102915.7;;;;-75
2022/04/17 09:04:59;;;;;;;;;;;;;;;19.04;38.00977;102918.2;;;;-74
2022/04/17 09:09:59;;;;;;;;;;;;;;;19.34;37.57715;102915.4;;;;-74
2022/04/17 09:12:59;;;;;;;7.7;3.8;;;;;;;;;;;;;-75
2022/04/17 09:14:59;;;;;;;;;;;;;;;19.68;37.59375;102904.6;;;;-75
2022/04/17 09:19:59;;;;;;;;;;;;;;;20.01;36.67285;102905.5;;;;-75
2022/04/17 09:25:09;;;;;;;;;;;;;;;20.21;36.76855;102899.1;;;;-74
2022/04/17 09:29:59;;;;;;;;;;;;;;;20.49;36.36816;102896.4;;;;-76
2022/04/17 09:35:00;;;;;;;;;;;;;;;20.81;36.46387;102883.5;;;;-77
2022/04/17 09:40:09;;;;;;;;;;;;;;;21.19;36.48242;102882.4;;;;-74
2022/04/17 09:43:17;;;;;;;6.2;3.6;;;;;;;;;;;;;-74
2022/04/17 09:45:00;;;;;;;;;;;;;;;21.53;36.18848;102880.5;;;;-75
2022/04/17 09:50:00;;;;;;;;;;;;;;;21.85;35.20215;102869.8;;;;-76
2022/04/17 09:54:59;;;;;;;;;;;;;;;22.16;35.80273;102862.4;;;;-75
2022/04/17 10:00:09;;;;;;;;;;;;;;;22.54;35.12988;102863.3;;;;-75
2022/04/17 10:04:59;;;;;;;;;;;;;;;22.76;35.5625;102848;;;;-75
2022/04/17 10:09:59;;;;;;;;;;;;;;;22.98;34.83008;102838.7;;;;-75
2022/04/17 10:13:07;;;;;;;6.1;3.5;;;;;;;;;;;;;-77
2022/04/17 10:15:04;;;;;;;;;;;;;;;23.28;35.85742;102836.8;;;;-76
2022/04/17 10:20:00;;;;;;;;;;;;;;;23.7;34.90918;102830.9;;;;-75
2022/04/17 10:25:02;;;;;;;;;;;;;;;24.07;35.14648;102828.9;;;;-75
2022/04/17 10:30:06;;;;;;;;;;;;;;;24.29;35.31348;102825.9;;;;-76
2022/04/17 10:35:12;;;;;;;;;;;;;;;24.53;35.58789;102817.6;;;;-76
2022/04/17 10:39:59;;;;;;;;;;;;;;;24.68;35.49512;102811.9;;;;-77
2022/04/17 10:43:10;;;;;;;6.9;3.9;;;;;;;;;;;;;-76
2022/04/17 10:45:12;;;;;;;;;;;;;;;24.79;35.80469;102800.2;;;;-77
2022/04/17 10:50:00;;;;;;;;;;;;;;;25;35.34668;102796;;;;-76
2022/04/17 10:54:59;;;;;;;;;;;;;;;25.24;34.68164;102797.5;;;;-77
2022/04/17 11:00:13;;;;;;;;;;;;;;;25.47;35.5332;102786.3;;;;-75
2022/04/17 11:05:04;;;;;;;;;;;;;;;25.69;34.94824;102774.4;;;;-76
2022/04/17 11:10:19;;;;;;;;;;;;;;;25.84;33.33398;102765;;;;-77
2022/04/17 11:13:11;;;;;;;5.3;3.5;;;;;;;;;;;;;-79
2022/04/17 11:15:17;;;;;;;;;;;;;;;25.83;33.14746;102766.8;;;;-76
2022/04/17 11:20:00;;;;;;;;;;;;;;;25.65;33.86621;102759.4;;;;-76
2022/04/17 11:26:44;;;;;;;;;;;;;;;25.64;33.48145;102746.1;;;;-76
2022/04/17 11:31:38;;;;;;;;;;;;;;;25.68;34.62207;102738.4;;;;-76
2022/04/17 11:36:32;;;;;;;;;;;;;;;25.73;33.87109;102729;;;;-77
2022/04/17 11:41:32;;;;;;;;;;;;;;;25.72;33.61523;102714.7;;;;-77
2022/04/17 11:43:18;;;;;;;5.1;3.3;;;;;;;;;;;;;-75
2022/04/17 11:46:41;;;;;;;;;;;;;;;25.76;34.04785;102712.6;;;;-76
2022/04/17 11:51:30;;;;;;;;;;;;;;;25.86;34.00879;102696.9;;;;-76
2022/04/17 11:56:40;;;;;;;;;;;;;;;25.88;33.96387;102696.6;;;;-76
2022/04/17 12:01:30;;;;;;;;;;;;;;;25.92;34.53613;102681.1;;;;-76
2022/04/17 12:06:34;;;;;;;;;;;;;;;26;34.35645;102680.6;;;;-75
2022/04/17 12:11:33;;;;;;;;;;;;;;;25.95;34.7832;102675.6;;;;-76
2022/04/17 12:13:34;;;;;;;5;3.3;;;;;;;;;;;;;-76
2022/04/17 12:16:30;;;;;;;;;;;;;;;25.94;33.96875;102665.4;;;;-77
2022/04/17 12:21:35;;;;;;;;;;;;;;;25.95;34.91016;102655.4;;;;-76
2022/04/17 12:26:31;;;;;;;;;;;;;;;25.95;32.85352;102644.7;;;;-75
2022/04/17 12:31:40;;;;;;;;;;;;;;;25.92;34.02539;102645.4;;;;-77
2022/04/17 12:36:37;;;;;;;;;;;;;;;26.01;33.65918;102637.4;;;;-76
2022/04/17 12:41:42;;;;;;;;;;;;;;;25.93;34.08398;102633.2;;;;-77
2022/04/17 12:43:32;;;;;;;4.5;2.8;;;;;;;;;;;;;-77
2022/04/17 12:46:32;;;;;;;;;;;;;;;25.98;33.01953;102620.3;;;;-75
2022/04/17 12:51:36;;;;;;;;;;;;;;;26;32.86914;102621.4;;;;-76
2022/04/17 12:56:34;;;;;;;;;;;;;;;26.1;33.57422;102608.9;;;;-74
2022/04/17 13:01:40;;;;;;;;;;;;;;;26.26;33.01563;102600.4;;;;-78
2022/04/17 13:06:39;;;;;;;;;;;;;;;26.2;32.80273;102595.9;;;;-77
2022/04/17 13:11:42;;;;;;;;;;;;;;;26.16;33.39258;102592.4;;;;-75
2022/04/17 13:13:39;;;;;;;5.5;3.4;;;;;;;;;;;;;-77
2022/04/17 13:16:30;;;;;;;;;;;;;;;26.08;33.5957;102580;;;;-77
2022/04/17 13:21:41;;;;;;;;;;;;;;;26.33;33.34766;102570.2;;;;-77
2022/04/17 13:26:33;;;;;;;;;;;;;;;26.46;33.56641;102562.5;;;;-76
2022/04/17 13:31:30;;;;;;;;;;;;;;;26.51;33.38477;102555;;;;-77
2022/04/17 13:38:10;;;;;;;;;;;;;;;;33.77246;102550.6;;;;
2022/04/17 13:41:34;;;;;;;;;;;;;;;26.55;34.13086;102534.8;;;;-77
2022/04/17 13:43:34;;;;;;;5;3.4;;;;;;;;;;;;;-76
2022/04/17 13:46:41;;;;;;;;;;;;;;;26.57;34.31836;102519;;;;-76
2022/04/17 13:51:36;;;;;;;;;;;;;;;26.65;33.98828;102517.1;;;;-75
2022/04/17 13:56:32;;;;;;;;;;;;;;;26.81;34.36035;102505.8;;;;-76
2022/04/17 14:01:30;;;;;;;;;;;;;;;26.91;33.73926;102504.6;;;;-77
2022/04/17 14:06:30;;;;;;;;;;;;;;;26.97;34.58203;102498.8;;;;-76
2022/04/17 14:11:30;;;;;;;;;;;;;;;27.05;33.91211;102488;;;;-78
2022/04/17 14:13:49;;;;;;;4.2;2.9;;;;;;;;;;;;;-77
2022/04/17 14:16:31;;;;;;;;;;;;;;;27.04;33.01465;102477.3;;;;-76
2022/04/17 14:21:30;;;;;;;;;;;;;;;26.99;33.08203;102472.4;;;;-75
2022/04/17 14:26:45;;;;;;;;;;;;;;;26.93;33.54297;102467.8;;;;-80
2022/04/17 14:31:30;;;;;;;;;;;;;;;26.95;33.37012;102459.4;;;;-76
2022/04/17 14:36:31;;;;;;;;;;;;;;;26.93;34.06641;102451.3;;;;-77
2022/04/17 14:41:30;;;;;;;;;;;;;;;27.03;33.39941;102441.3;;;;-76
2022/04/17 14:43:39;;;;;;;3.9;2.6;;;;;;;;;;;;;-75
2022/04/17 14:46:30;;;;;;;;;;;;;;;27.11;33.87012;102435;;;;-77
2022/04/17 14:51:30;;;;;;;;;;;;;;;27.17;33.66602;102424.3;;;;-77
2022/04/17 14:56:31;;;;;;;;;;;;;;;27.23;34.07715;102424.8;;;;-75
2022/04/17 15:01:30;;;;;;;;;;;;;;;27.3;34.46777;102416;;;;-77
2022/04/17 15:06:30;;;;;;;;;;;;;;;27.27;34.31348;102409.9;;;;-76
2022/04/17 15:11:33;;;;;;;;;;;;;;;27.21;34.69336;102404;;;;-76
2022/04/17 15:13:46;;;;;;;4.8;3;;;;;;;;;;;;;-76
2022/04/17 15:16:30;;;;;;;;;;;;;;;27.19;33.81836;102396.3;;;;-75
2022/04/17 15:21:30;;;;;;;;;;;;;;;27.1;34.28906;102386.4;;;;-77
2022/04/17 15:26:30;;;;;;;;;;;;;;;26.95;34.25488;102379;;;;-75
2022/04/17 15:31:36;;;;;;;;;;;;;;;26.82;33.7207;102372.9;;;;-77
2022/04/17 15:36:31;;;;;;;;;;;;;;;26.71;33.80566;102368.3;;;;-81
2022/04/17 15:41:30;;;;;;;;;;;;;;;26.61;33.85645;102363.7;;;;-82
2022/04/17 15:51:31;;;;;;;;;;;;;;;26.31;33.91504;102350.9;;;;-79
2022/04/17 15:56:38;;;;;;;;;;;;;;;26.21;33.60449;102348.8;;;;-77
2022/04/17 16:01:30;;;;;;;;;;;;;;;25.96;33.7959;102343.6;;;;-76
2022/04/17 16:06:30;;;;;;;;;;;;;;;25.77;33.53809;102335.9;;;;-77
2022/04/17 16:11:32;;;;;;;;;;;;;;;25.61;33.21191;102332.4;;;;-76
2022/04/17 16:13:52;;;;;;;4.3;2.8;;;;;;;;;;;;;-74
2022/04/17 16:16:32;;;;;;;;;;;;;;;25.45;33.72363;102331;;;;-76
2022/04/17 16:21:31;;;;;;;;;;;;;;;25.33;33.77246;102324.6;;;;-76
2022/04/17 16:26:30;;;;;;;;;;;;;;;25.26;34.2998;102320.2;;;;-75
2022/04/17 16:31:31;;;;;;;;;;;;;;;25.15;34.81348;102313.7;;;;-76
2022/04/17 16:36:33;;;;;;;;;;;;;;;24.99;34.03613;102309.3;;;;-75
2022/04/17 16:41:31;;;;;;;;;;;;;;;24.8;33.94141;102310.8;;;;-81
2022/04/17 16:43:53;;;;;;;4.5;2.9;;;;;;;;;;;;;-81
2022/04/17 16:46:30;;;;;;;;;;;;;;;24.62;34.72559;102307.5;;;;-82
2022/04/17 16:51:30;;;;;;;;;;;;;;;24.42;34.14355;102301.4;;;;-80
2022/04/17 16:56:31;;;;;;;;;;;;;;;24.21;34.625;102294.8;;;;-80
2022/04/17 17:01:32;;;;;;;;;;;;;;;24.04;34.47266;102290.7;;;;-79
2022/04/17 17:06:30;;;;;;;;;;;;;;;23.87;35.39648;102281.4;;;;-83
2022/04/17 17:11:34;;;;;;;;;;;;;;;23.69;35.77441;102276.8;;;;-81
2022/04/17 17:13:58;;;;;;;7.3;3.7;;;;;;;;;;;;;-81
2022/04/17 17:16:30;;;;;;;;;;;;;;;23.5;35.81738;102275.3;;;;-82
2022/04/17 17:21:30;;;;;;;;;;;;;;;23.23;35.94629;102261.8;;;;-82
2022/04/17 17:26:30;;;;;;;;;;;;;;;22.99;36.42285;102252.3;;;;-80
2022/04/17 17:31:31;;;;;;;;;;;;;;;22.79;36.70605;102254.3;;;;-83
2022/04/17 17:36:32;;;;;;;;;;;;;;;22.55;36.73242;102252.9;;;;-80
2022/04/17 17:41:37;;;;;;;;;;;;;;;22.29;36.74609;102256.7;;;;-82
2022/04/17 17:44:01;;;;;;;5;2.9;;;;;;;;;;;;;-82
2022/04/17 17:46:30;;;;;;;;;;;;;;;22;37.13574;102256.9;;;;-83
2022/04/17 17:51:40;;;;;;;;;;;;;;;21.72;37.08984;102254.1;;;;-82
2022/04/17 17:56:31;;;;;;;;;;;;;;;21.44;37.55957;102252.9;;;;-77
2022/04/17 18:01:30;;;;;;;;;;;;;;;21.1;37.11719;102248.8;;;;-81
2022/04/17 18:06:30;;;;;;;;;;;;;;;20.69;37.37109;102249.5;;;;-81
2022/04/17 18:16:42;;;;;;;;;;;;;;;20.04;37.86621;102259.7;;;;-82
2022/04/17 18:21:31;;;;;;;;;;;;;;;19.73;38.31934;102254.3;;;;-80
2022/04/17 18:26:44;;;;;;;;;;;;;;;19.42;38.21387;102256.9;;;;-81
2022/04/17 18:31:31;;;;;;;;;;;;;;;19.11;38.59766;102251.2;;;;-80
2022/04/17 18:36:31;;;;;;;;;;;;;;;18.78;38.93457;102255.5;;;;-82
2022/04/17 18:41:30;;;;;;;;;;;;;;;18.47;39.21387;102253.5;;;;-81
2022/04/17 18:44:09;;;;;;;5;3;;;;;;;;;;;;;-83
2022/04/17 18:46:32;;;;;;;;;;;;;;;18.13;39.29883;102247.2;;;;-83
2022/04/17 18:51:30;;;;;;;;;;;;;;;17.8;39.61133;102248.5;;;;-81
2022/04/17 18:56:32;;;;;;;;;;;;;;;17.52;39.88184;102247;;;;-81
2022/04/17 19:01:31;;;;;;;;;;;;;;;17.23;40.03809;102240.1;;;;-81
2022/04/17 19:06:30;;;;;;;;;;;;;;;16.97;40.36719;102234.6;;;;-80
2022/04/17 19:14:08;;;;;;;5.6;2.4;;;;;;;;;;;;;-81
2022/04/17 19:16:30;;;;;;;;;;;;;;;16.44;40.75977;102240.5;;;;-83
2022/04/17 19:21:33;;;;;;;;;;;;;;;16.22;40.98926;102240;;;;-80
2022/04/17 19:26:33;;;;;;;;;;;;;;;16;41.03711;102236.5;;;;-84
2022/04/17 19:36:33;;;;;;;;;;;;;;;15.57;41.37012;102228.8;;;;-81
2022/04/17 19:41:31;;;;;;;;;;;;;;;15.38;41.68066;102224.1;;;;-83
2022/04/17 19:44:09;;;;;;;3.8;1.9;;;;;;;;;;;;;-82
2022/04/17 19:46:42;;;;;;;;;;;;;;;15.22;41.94824;102224.9;;;;-81
2022/04/17 19:51:31;;;;;;;;;;;;;;;15.04;41.99902;102223.2;;;;-82
2022/04/17 19:56:30;;;;;;;;;;;;;;;14.85;42.15039;102213.9;;;;-83
2022/04/17 20:01:30;;;;;;;;;;;;;;;14.67;42.46094;102217.4;;;;-82
2022/04/17 20:06:30;;;;;;;;;;;;;;;14.51;42.7041;102219.1;;;;-83
2022/04/17 20:11:31;;;;;;;;;;;;;;;14.35;42.84766;102212.3;;;;-82
2022/04/17 20:14:11;;;;;;;4.5;1.9;;;;;;;;;;;;;-80
2022/04/17 20:16:35;;;;;;;;;;;;;;;14.19;42.96777;102204.4;;;;-81
2022/04/17 20:21:30;;;;;;;;;;;;;;;14.05;43.14551;102204.5;;;;-81
2022/04/17 20:26:30;;;;;;;;;;;;;;;13.91;43.31348;102204.4;;;;-83
2022/04/17 20:31:30;;;;;;;;;;;;;;;13.78;43.54688;102206.2;;;;-83
2022/04/17 20:36:30;;;;;;;;;;;;;;;13.64;43.80371;102201.7;;;;-80
2022/04/17 20:41:32;;;;;;;;;;;;;;;13.5;43.84473;102191.9;;;;-81
2022/04/17 20:51:33;;;;;;;;;;;;;;;13.23;44.21191;102183.3;;;;-80
2022/04/17 20:56:32;;;;;;;;;;;;;;;13.1;44.27832;102176.3;;;;-82
2022/04/17 21:01:33;;;;;;;;;;;;;;;12.99;44.52637;102171.5;;;;-80
2022/04/17 21:06:32;;;;;;;;;;;;;;;12.88;44.55859;102170.4;;;;-80
2022/04/17 21:11:31;;;;;;;;;;;;;;;12.76;44.72656;102173.6;;;;-81
2022/04/17 21:14:16;;;;;;;3.6;2.2;;;;;;;;;;;;;-79
2022/04/17 21:16:30;;;;;;;;;;;;;;;12.63;44.86035;102172.5;;;;-81
2022/04/17 21:21:32;;;;;;;;;;;;;;;12.51;45.02734;102165;;;;-79
2022/04/17 21:26:31;;;;;;;;;;;;;;;12.38;45.31738;102168.2;;;;-82
2022/04/17 21:31:31;;;;;;;;;;;;;;;12.27;45.58691;102163.5;;;;-82
2022/04/17 21:36:30;;;;;;;;;;;;;;;12.18;45.71094;102160.4;;;;-81
2022/04/17 21:41:32;;;;;;;;;;;;;;;12.05;45.73242;102160.8;;;;-79
2022/04/17 21:44:14;;;;;;;4.3;2.5;;;;;;;;;;;;;-80
2022/04/17 21:46:31;;;;;;;;;;;;;;;11.94;45.93359;102158.3;;;;-77
2022/04/17 21:51:36;;;;;;;;;;;;;;;11.84;46.16895;102160;;;;-81
2022/04/17 21:56:32;;;;;;;;;;;;;;;11.73;46.17969;102155.7;;;;-82
2022/04/17 22:06:30;;;;;;;;;;;;;;;11.52;46.22559;102160.6;;;;-82
2022/04/17 22:11:31;;;;;;;;;;;;;;;11.41;46.41504;102160.7;;;;-81
2022/04/17 22:14:16;;;;;;;4.6;2.6;;;;;;;;;;;;;-80
2022/04/17 22:16:30;;;;;;;;;;;;;;;11.31;46.4375;102162.7;;;;-83
2022/04/17 22:21:33;;;;;;;;;;;;;;;11.21;46.67383;102162.4;;;;-80
2022/04/17 22:26:34;;;;;;;;;;;;;;;11.09;46.74902;102158.3;;;;-80
2022/04/17 22:31:32;;;;;;;;;;;;;;;11.02;46.75391;102155.2;;;;-79
2022/04/17 22:36:33;;;;;;;;;;;;;;;10.96;46.83594;102156.8;;;;-79
2022/04/17 22:41:30;;;;;;;;;;;;;;;10.87;46.93945;102148.8;;;;-80
2022/04/17 22:44:19;;;;;;;5.8;3;;;;;;;;;;;;;-81
2022/04/17 22:46:30;;;;;;;;;;;;;;;10.78;46.92969;102144.6;;;;-79
2022/04/17 22:51:35;;;;;;;;;;;;;;;10.69;46.94238;102138.7;;;;-81
2022/04/17 22:56:33;;;;;;;;;;;;;;;10.64;46.99219;102134.2;;;;-81
2022/04/17 23:01:31;;;;;;;;;;;;;;;10.55;46.91504;102136.5;;;;-81
2022/04/17 23:06:30;;;;;;;;;;;;;;;10.47;46.93945;102130;;;;-82
2022/04/17 23:11:30;;;;;;;;;;;;;;;10.39;47.05469;102119.5;;;;-80
2022/04/17 23:14:21;;;;;;;6.7;3.5;;;;;;;;;;;;;-80
2022/04/17 23:16:30;;;;;;;;;;;;;;;10.32;47.04688;102115.6;;;;-80
2022/04/17 23:21:30;;;;;;;;;;;;;;;10.25;47.0625;102116;;;;-80
2022/04/17 23:26:32;;;;;;;;;;;;;;;10.17;46.93066;102104.6;;;;-81
2022/04/17 23:31:32;;;;;;;;;;;;;;;10.1;47.13574;102099.6;;;;-81
2022/04/17 23:36:31;;;;;;;;;;;;;;;10.05;47.05176;102095.8;;;;-81
2022/04/17 23:41:30;;;;;;;;;;;;;;;9.99;47.10059;102092.8;;;;-79
2022/04/17 23:44:22;;;;;;;8.9;4;;;;;;;;;;;;;-79
2022/04/17 23:46:31;;;;;;;;;;;;;;;9.93;47.0498;102089.3;;;;-80
2022/04/17 23:51:30;;;;;;;;;;;;;;;9.9;47.14648;102090.1;;;;-80
2022/04/17 23:56:30;;;;;;;;;;;;;;;9.84;47.15137;102085.7;;;;-80
